Time;durP1;ratioP1;P1;durP2;ratioP2;P2;SDS_P1;SDS_P2;PMS_P1;PMS_P2;Temp;Humidity;BMP_temperature;BMP_pressure;BME280_temperature;BME280_humidity;BME280_pressure;Samples;Min_cycle;Max_cycle;Signal;HPM_P1;HPM_P2
2021/05/27 00:00:05;;;;;;;28.55;18.67;;;;;;;17.86;82.01;101691.34;1753811;82;21188;-79
2021/05/27 00:02:39;;;;;;;31.75;18.05;;;;;;;17.83;82.10;101690.52;1753398;81;21327;-72
2021/05/27 00:05:13;;;;;;;33.38;19.87;;;;;;;17.84;82.11;101695.56;1753796;79;21351;-72
2021/05/27 00:07:47;;;;;;;32.63;20.97;;;;;;;17.86;82.15;101689.11;1770029;80;21900;-79
2021/05/27 00:10:24;;;;;;;35.78;21.82;;;;;;;17.88;82.13;101693.88;1753396;81;21231;-79
2021/05/27 00:12:57;;;;;;;37.08;20.75;;;;;;;17.87;82.07;101699.23;1770283;79;21462;-70
2021/05/27 00:15:31;;;;;;;34.63;19.50;;;;;;;17.85;82.07;101709.34;1753442;82;21228;-72
2021/05/27 00:18:05;;;;;;;38.48;20.55;;;;;;;17.87;82.12;101704.84;1753482;82;21177;-71
2021/05/27 00:20:37;;;;;;;36.15;20.48;;;;;;;17.89;82.00;101703.98;1780843;80;21193;-79
2021/05/27 00:23:10;;;;;;;31.90;20.37;;;;;;;17.88;81.85;101697.55;1784622;80;21670;-77
2021/05/27 00:25:43;;;;;;;35.38;20.57;;;;;;;17.84;82.07;101695.56;1718728;83;21254;-69
2021/05/27 00:28:15;;;;;;;34.87;19.90;;;;;;;17.82;82.12;101690.25;1719089;83;21689;-75
2021/05/27 00:30:48;;;;;;;36.93;19.55;;;;;;;17.82;81.98;101692.20;1748763;82;21368;-71
2021/05/27 00:33:21;;;;;;;37.13;20.47;;;;;;;17.76;82.08;101698.41;1713234;83;21398;-70
2021/05/27 00:35:54;;;;;;;37.78;19.75;;;;;;;17.75;82.43;101698.10;1711995;84;21620;-74
2021/05/27 00:38:27;;;;;;;31.73;19.23;;;;;;;17.74;82.41;101691.38;1712058;83;21350;-74
2021/05/27 00:40:59;;;;;;;34.75;18.65;;;;;;;17.62;82.68;101689.44;1711988;84;21198;-74
2021/05/27 00:43:35;;;;;;;36.48;18.32;;;;;;;17.58;82.99;101687.75;1712102;84;21298;-74
2021/05/27 00:46:08;;;;;;;45.45;20.45;;;;;;;17.61;83.03;101686.34;1712027;84;21261;-77
2021/05/27 00:51:31;;;;;;;27.90;18.65;;;;;;;17.71;82.84;101687.17;1712220;84;21451;-72
2021/05/27 00:54:06;;;;;;;37.58;20.00;;;;;;;17.70;82.62;101682.68;1711926;84;21189;-70
2021/05/27 00:56:39;;;;;;;29.25;18.67;;;;;;;17.69;82.67;101679.56;1711932;84;21228;-70
2021/05/27 00:59:12;;;;;;;33.63;20.05;;;;;;;17.72;82.65;101680.97;1712015;84;21256;-81
2021/05/27 01:01:48;;;;;;;35.67;20.57;;;;;;;17.75;82.55;101683.23;1708710;84;21829;-70
2021/05/27 01:04:22;;;;;;;34.60;20.00;;;;;;;17.74;82.17;101682.95;1712090;84;21950;-77
2021/05/27 01:06:54;;;;;;;35.50;19.82;;;;;;;17.69;82.11;101676.75;1712047;84;21217;-72
2021/05/27 01:09:27;;;;;;;31.40;19.77;;;;;;;17.70;82.11;101679.88;1717782;82;21227;-72
2021/05/27 01:12:00;;;;;;;31.57;20.15;;;;;;;17.72;82.08;101680.42;1772098;81;21249;-74
2021/05/27 01:17:24;;;;;;;31.30;19.40;;;;;;;17.73;82.09;101677.06;1772501;81;21183;-73
2021/05/27 01:19:58;;;;;;;32.83;19.48;;;;;;;17.69;82.11;101670.31;1706485;84;21340;-71
2021/05/27 01:22:31;;;;;;;32.40;19.92;;;;;;;17.68;82.22;101677.89;1751559;81;21321;-70
2021/05/27 01:25:04;;;;;;;32.08;20.12;;;;;;;17.68;82.26;101671.45;1706468;84;21361;-77
2021/05/27 01:27:37;;;;;;;32.98;20.20;;;;;;;17.67;82.38;101672.58;1706515;84;21336;-72
2021/05/27 01:30:12;;;;;;;;;;;;;;;17.58;82.61;101675.66;1708658;84;21226;-71
2021/05/27 01:32:45;;;;;;;31.12;20.52;;;;;;;17.56;82.88;101669.49;1723558;82;21236;-71
2021/05/27 01:35:24;;;;;;;32.38;20.70;;;;;;;17.56;83.28;101666.69;1752949;80;21245;-72
2021/05/27 01:37:57;;;;;;;33.88;20.37;;;;;;;17.59;83.55;101672.58;1777558;80;21190;-72
2021/05/27 01:40:29;;;;;;;35.15;21.37;;;;;;;17.57;83.57;101669.22;1776875;80;21360;-71
2021/05/27 01:44:15;;;;;;;30.77;19.12;;;;;;;17.53;83.91;101668.64;1762026;80;21858;-72
2021/05/27 01:46:49;;;;;;;25.60;17.00;;;;;;;17.51;84.15;101663.87;1748391;82;21352;-71
2021/05/27 01:49:22;;;;;;;35.58;18.95;;;;;;;17.49;84.52;101666.14;1748101;82;21846;-74
2021/05/27 01:51:54;;;;;;;31.17;20.12;;;;;;;17.40;84.72;101676.23;1748200;82;21194;-70
2021/05/27 01:54:27;;;;;;;27.87;18.15;;;;;;;17.27;85.15;101670.61;1748396;82;21261;-72
2021/05/27 01:57:00;;;;;;;25.97;17.50;;;;;;;17.19;85.64;101678.16;1748455;82;21334;-72
2021/05/27 01:59:34;;;;;;;24.00;16.40;;;;;;;17.15;86.04;101679.87;1705911;84;21905;-71
2021/05/27 02:02:07;;;;;;;25.15;16.95;;;;;;;17.12;86.28;101678.18;1717840;82;21351;-70
2021/05/27 02:04:39;;;;;;;22.87;15.78;;;;;;;17.11;86.72;101678.73;1728236;82;21205;-71
2021/05/27 02:07:13;;;;;;;28.87;17.98;;;;;;;17.16;86.93;101673.67;1691415;82;21325;-70
2021/05/27 02:09:49;;;;;;;27.02;18.57;;;;;;;17.17;86.90;101663.58;1715672;81;21700;-72
2021/05/27 02:12:22;;;;;;;27.95;17.57;;;;;;;17.21;86.92;101668.92;1706036;84;21853;-71
2021/05/27 02:26:33;;;;;;;26.45;17.07;;;;;;;17.21;86.26;101681.55;1768829;80;21166;-71
2021/05/27 02:29:07;;;;;;;25.45;17.20;;;;;;;17.23;86.11;101678.44;1782684;80;21388;-73
2021/05/27 02:31:42;;;;;;;27.58;17.87;;;;;;;17.19;85.74;101685.18;1782678;80;21182;-70
2021/05/27 02:34:17;;;;;;;25.37;18.32;;;;;;;17.18;85.80;101681.27;1699966;84;21242;-71
2021/05/27 02:36:50;;;;;;;;;;;;;;;17.21;85.77;101675.94;1703225;84;21368;-70
2021/05/27 02:39:23;;;;;;;29.18;18.95;;;;;;;17.25;85.55;101684.64;1718982;83;20574;-72
2021/05/27 02:41:57;;;;;;;24.72;17.10;;;;;;;17.30;85.27;101684.06;1691702;84;21198;-71
2021/05/27 02:44:31;;;;;;;26.02;17.77;;;;;;;17.35;84.98;101687.43;1672851;86;21261;-73
2021/05/27 02:47:04;;;;;;;26.30;18.32;;;;;;;17.38;84.63;101682.13;1671526;86;21256;-72
2021/05/27 02:49:37;;;;;;;23.67;17.50;;;;;;;17.38;84.63;101682.13;1692308;84;21363;-70
2021/05/27 02:52:13;;;;;;;23.00;17.32;;;;;;;17.44;84.47;101680.17;1712171;83;21654;-71
2021/05/27 02:54:47;;;;;;;33.78;18.77;;;;;;;17.47;84.28;101680.45;1730492;83;21826;-70
2021/05/27 02:57:22;;;;;;;27.07;18.75;;;;;;;17.52;84.04;101682.41;1699205;84;21213;-72
2021/05/27 02:59:54;;;;;;;29.90;19.17;;;;;;;17.58;83.98;101686.90;1730340;83;21373;-74
2021/05/27 03:02:29;;;;;;;31.85;16.80;;;;;;;17.62;83.84;101693.64;1700046;83;21362;-73
2021/05/27 03:05:02;;;;;;;24.60;17.17;;;;;;;17.66;83.75;101689.12;1673334;85;21342;-71
2021/05/27 03:07:35;;;;;;;25.90;15.32;;;;;;;17.71;83.72;101690.53;1673809;84;21290;-74
2021/05/27 03:10:14;;;;;;;23.35;15.48;;;;;;;17.75;83.58;101686.86;1746082;81;21886;-73
2021/05/27 03:12:48;;;;;;;21.82;12.63;;;;;;;17.72;83.72;101688.84;1750471;81;21362;-73
2021/05/27 03:15:30;;;;;;;19.07;12.35;;;;;;;17.72;84.01;101690.80;1769283;81;21192;-73
2021/05/27 03:18:07;;;;;;;20.95;12.60;;;;;;;17.70;84.18;101694.47;1769189;81;21235;-72
2021/05/27 03:20:41;;;;;;;28.92;12.50;;;;;;;17.69;84.75;101689.98;1763556;81;21434;-72
2021/05/27 03:23:15;;;;;;;21.82;12.95;;;;;;;17.69;85.28;101692.20;1750672;81;21382;-72
2021/05/27 03:25:48;;;;;;;25.43;13.48;;;;;;;17.73;85.62;101685.48;1746080;81;21210;-71
2021/05/27 03:28:23;;;;;;;;;;;;;;;17.79;85.79;101680.14;1758405;81;21183;-69
2021/05/27 03:30:56;;;;;;;42.78;19.05;;;;;;;17.87;85.89;101678.97;1765978;81;20179;-70
2021/05/27 03:33:30;;;;;;;56.08;22.10;;;;;;;17.96;85.75;101684.85;1771787;80;21186;-74
2021/05/27 03:36:04;;;;;;;72.37;24.10;;;;;;;18.07;85.65;101683.70;1782919;80;21189;-72
2021/05/27 03:38:39;;;;;;;56.65;21.97;;;;;;;18.17;85.33;101683.69;1783180;80;21193;-72
2021/05/27 03:41:13;;;;;;;64.30;21.57;;;;;;;18.22;85.04;101683.67;1779081;80;21337;-73
2021/05/27 03:43:46;;;;;;;51.35;20.25;;;;;;;18.24;84.88;101684.22;1768723;80;21445;-75
2021/05/27 03:46:20;;;;;;;73.17;26.62;;;;;;;18.29;84.91;101678.58;1757427;80;21343;-70
2021/05/27 03:48:55;;;;;;;76.75;29.98;;;;;;;18.35;84.85;101681.67;1769704;80;21158;-71
2021/05/27 03:51:28;;;;;;;62.88;25.57;;;;;;;18.39;84.64;101683.63;1748287;82;21209;-75
2021/05/27 03:54:01;;;;;;;40.05;18.77;;;;;;;18.43;84.42;101679.66;1748414;82;21387;-75
2021/05/27 03:56:34;;;;;;;31.12;16.62;;;;;;;18.42;84.06;101680.80;1748498;82;21369;-74
2021/05/27 04:02:05;;;;;;;33.50;20.00;;;;;;;18.35;84.50;101681.09;1763733;80;21328;-72
2021/05/27 04:07:33;;;;;;;39.90;22.07;;;;;;;18.31;84.40;101677.75;1748135;82;21182;-73
2021/05/27 04:10:09;;;;;;;39.18;22.25;;;;;;;18.23;84.53;101677.73;1765271;80;21352;-74
2021/05/27 04:12:51;;;;;;;36.83;24.45;;;;;;;18.20;84.70;101674.11;1751052;79;21176;-77
2021/05/27 04:15:24;;;;;;;37.55;20.60;;;;;;;18.19;84.91;101674.38;1764798;80;21222;-72
2021/05/27 04:18:02;;;;;;;37.93;19.10;;;;;;;18.13;85.06;101671.31;1751508;80;21191;-72
2021/05/27 04:20:47;;;;;;;58.95;32.30;;;;;;;18.06;85.34;101671.63;1754716;80;21191;-75
2021/05/27 04:23:39;;;;;;;43.73;24.63;;;;;;;18.02;85.63;101662.62;1752522;80;21404;-72
2021/05/27 04:26:15;;;;;;;37.53;23.83;;;;;;;18.04;86.31;101664.61;1761053;80;21747;-73
2021/05/27 04:28:48;;;;;;;37.75;20.55;;;;;;;18.19;87.05;101668.21;1765138;80;21253;-77
2021/05/27 04:31:22;;;;;;;42.05;18.80;;;;;;;18.51;87.50;101668.66;1748043;82;21209;-72
2021/05/27 04:33:56;;;;;;;;;;;;;;;19.05;87.69;101663.81;1764062;79;21194;-74
2021/05/27 04:36:29;;;;;;;38.30;19.52;;;;;;;19.73;86.80;101659.00;1771977;80;20330;-74
2021/05/27 04:39:03;;;;;;;27.43;19.60;;;;;;;20.36;84.22;101661.98;1768542;80;21320;-72
2021/05/27 04:41:36;;;;;;;34.88;23.65;;;;;;;20.95;81.41;101656.63;1751206;80;21380;-72
2021/05/27 04:44:09;;;;;;;39.63;21.93;;;;;;;21.56;78.87;101652.49;1757902;80;21348;-72
2021/05/27 04:46:43;;;;;;;30.70;18.62;;;;;;;22.15;76.38;101651.67;1770848;80;21834;-72
2021/05/27 04:49:16;;;;;;;34.57;21.70;;;;;;;22.71;73.79;101653.59;1763749;80;21150;-72
2021/05/27 04:51:49;;;;;;;39.10;19.37;;;;;;;22.97;71.31;101651.86;1762149;80;21313;-74
2021/05/27 04:54:21;;;;;;;30.70;17.05;;;;;;;22.98;69.58;101657.78;1758229;79;21329;-73
2021/05/27 04:56:53;;;;;;;36.45;17.52;;;;;;;22.87;68.98;101652.09;1775865;80;21238;-73
2021/05/27 04:59:28;;;;;;;;;;;;;;;22.75;68.95;101656.05;1772718;80;21200;-73
2021/05/27 05:02:03;;;;;;;27.35;17.87;;;;;;;22.73;69.19;101651.30;1759445;80;20217;-72
2021/05/27 05:04:37;;;;;;;27.60;16.62;;;;;;;22.85;68.59;101659.48;1760133;80;21242;-71
2021/05/27 05:07:10;;;;;;;25.20;17.00;;;;;;;23.23;68.10;101664.29;1762077;80;21197;-72
2021/05/27 05:09:42;;;;;;;43.08;17.05;;;;;;;23.69;66.35;101661.94;1763010;80;21194;-73
2021/05/27 05:12:15;;;;;;;34.92;16.52;;;;;;;24.12;64.68;101664.45;1772878;80;21174;-75
2021/05/27 05:14:48;;;;;;;;;;;;;;;24.63;63.96;101666.11;1772484;80;21245;-72
2021/05/27 05:17:21;;;;;;;26.57;15.57;;;;;;;25.13;61.45;101654.55;1772310;80;20253;-73
2021/05/27 05:19:55;;;;;;;20.60;13.00;;;;;;;25.54;59.33;101656.33;1775100;80;21937;-71
2021/05/27 05:22:29;;;;;;;32.90;14.80;;;;;;;25.93;58.97;101648.97;1752740;80;21891;-71
2021/05/27 05:25:02;;;;;;;30.20;13.75;;;;;;;26.31;56.81;101643.53;1754433;80;21168;-72
2021/05/27 05:27:34;;;;;;;29.18;14.33;;;;;;;26.63;53.12;101642.88;1755841;80;21194;-69
2021/05/27 05:30:09;;;;;;;29.02;15.65;;;;;;;26.84;53.71;101645.19;1752386;80;21237;-73
2021/05/27 05:32:42;;;;;;;29.18;14.20;;;;;;;27.09;53.24;101643.54;1760313;80;21329;-72
2021/05/27 05:35:17;;;;;;;24.32;16.77;;;;;;;27.42;51.96;101645.05;1761402;80;21333;-70
2021/05/27 05:37:50;;;;;;;24.47;15.60;;;;;;;27.48;50.71;101641.41;1762745;80;21423;-73
2021/05/27 05:40:25;;;;;;;30.00;22.17;;;;;;;27.54;50.34;101640.24;1763049;79;21320;-74
2021/05/27 05:42:57;;;;;;;20.00;15.35;;;;;;;27.70;48.95;101632.66;1763005;80;21332;-74
2021/05/27 05:45:30;;;;;;;31.75;17.17;;;;;;;27.79;49.38;101630.59;1763130;79;21894;-70
2021/05/27 05:48:02;;;;;;;29.90;13.90;;;;;;;27.97;48.52;101634.07;1770699;80;21360;-74
2021/05/27 05:50:52;;;;;;;23.05;13.30;;;;;;;28.28;47.83;101638.05;1768882;80;21847;-72
2021/05/27 05:53:24;;;;;;;23.83;14.10;;;;;;;28.66;47.09;101639.98;1759184;80;21222;-75
2021/05/27 05:55:59;;;;;;;28.62;13.32;;;;;;;28.73;46.25;101643.06;1765660;80;21850;-68
2021/05/27 05:58:35;;;;;;;35.80;13.72;;;;;;;28.82;45.35;101639.48;1778918;80;21503;-70
2021/05/27 06:01:09;;;;;;;24.87;12.10;;;;;;;28.81;45.45;101630.64;1777531;80;21353;-73
2021/05/27 06:03:41;;;;;;;23.95;9.85;;;;;;;28.84;45.58;101627.08;1779099;80;21183;-70
2021/05/27 06:06:16;;;;;;;22.40;9.93;;;;;;;28.91;44.56;101624.44;1777319;80;21376;-73
2021/05/27 06:09:08;;;;;;;25.68;11.12;;;;;;;29.09;43.97;101620.13;1778836;80;21218;-71
2021/05/27 06:11:42;;;;;;;20.88;10.68;;;;;;;29.46;43.75;101624.52;1779238;80;21318;-69
2021/05/27 06:14:15;;;;;;;23.85;9.68;;;;;;;29.78;44.00;101624.85;1778976;80;21309;-70
2021/05/27 06:16:49;;;;;;;22.17;10.20;;;;;;;30.01;42.83;101627.34;1774753;80;21174;-74
2021/05/27 06:19:22;;;;;;;20.45;10.28;;;;;;;30.01;41.98;101625.09;1767743;80;21308;-71
2021/05/27 06:21:57;;;;;;;20.95;9.18;;;;;;;29.93;41.65;101629.79;1758037;80;21160;-72
2021/05/27 06:24:49;;;;;;;28.57;8.43;;;;;;;29.60;41.53;101629.86;1747535;80;21240;-70
2021/05/27 06:27:22;;;;;;;17.65;7.08;;;;;;;29.60;41.53;101629.86;1764591;80;21712;-70
2021/05/27 06:29:56;;;;;;;11.73;6.60;;;;;;;29.50;41.78;101630.34;1734802;82;21929;-70
2021/05/27 06:32:31;;;;;;;14.38;6.95;;;;;;;29.43;41.29;101620.97;1758807;80;21324;-75
2021/05/27 06:35:09;;;;;;;14.43;6.60;;;;;;;29.34;40.21;101625.19;1702987;83;21710;-75
2021/05/27 06:37:43;;;;;;;12.35;6.47;;;;;;;29.47;40.33;101628.23;1768501;80;21901;-67
2021/05/27 06:40:22;;;;;;;11.00;5.47;;;;;;;29.66;39.65;101617.75;1772839;80;21376;-70
2021/05/27 06:42:54;;;;;;;23.87;6.72;;;;;;;29.66;40.30;101615.51;1772005;80;21949;-70
2021/05/27 06:45:27;;;;;;;18.85;6.45;;;;;;;29.77;39.84;101615.22;1776775;80;21993;-73
2021/05/27 06:47:59;;;;;;;13.65;5.30;;;;;;;30.00;39.48;101615.64;1773692;80;21186;-70
2021/05/27 06:50:36;;;;;;;19.98;8.18;;;;;;;30.23;40.32;101611.56;1772366;80;21245;-69
2021/05/27 06:53:15;;;;;;;13.62;6.00;;;;;;;30.42;40.89;101612.48;1772154;80;21376;-69
2021/05/27 06:55:49;;;;;;;12.10;5.80;;;;;;;30.64;41.15;101608.97;1705567;83;21452;-68
2021/05/27 06:58:22;;;;;;;11.20;5.30;;;;;;;30.75;40.03;101610.03;1701672;83;21206;-71
2021/05/27 07:00:55;;;;;;;11.53;5.17;;;;;;;30.79;39.00;101605.81;1772811;80;21222;-70
2021/05/27 07:03:28;;;;;;;6.60;4.08;;;;;;;30.84;39.75;101612.70;1775772;80;21407;-70
2021/05/27 07:06:05;;;;;;;6.17;4.40;;;;;;;30.85;38.94;101604.31;1773152;80;21210;-74
2021/05/27 07:08:36;;;;;;;9.93;4.40;;;;;;;30.96;38.83;101610.55;1774379;80;21269;-71
2021/05/27 07:11:11;;;;;;;11.08;4.10;;;;;;;30.83;37.59;101611.04;1719079;83;21276;-81
2021/05/27 07:13:43;;;;;;;6.33;3.60;;;;;;;30.64;38.88;101608.97;1719291;83;21339;-73
2021/05/27 07:16:16;;;;;;;6.25;4.37;;;;;;;30.38;37.28;101604.38;1719052;83;21281;-74
2021/05/27 07:18:49;;;;;;;8.73;4.25;;;;;;;30.11;38.39;101615.95;1711755;83;21201;-71
2021/05/27 07:21:22;;;;;;;6.87;3.87;;;;;;;29.62;38.98;101616.00;1711734;84;21736;-72
2021/05/27 07:23:56;;;;;;;8.63;3.90;;;;;;;29.17;39.61;101616.27;1778132;81;21201;-72
2021/05/27 07:26:31;;;;;;;9.83;3.90;;;;;;;28.97;38.70;101607.28;1775685;80;21763;-72
2021/05/27 07:29:04;;;;;;;9.13;4.58;;;;;;;28.89;41.22;101606.80;1761520;80;21327;-72
2021/05/27 07:31:37;;;;;;;;;;;;;;;28.78;40.33;101607.06;1773598;80;21850;-74
2021/05/27 07:34:10;;;;;;;6.87;3.22;;;;;;;28.96;40.14;101596.20;1784605;80;20249;-72
2021/05/27 07:36:44;;;;;;;11.43;3.98;;;;;;;28.93;38.13;101604.05;1784309;80;21149;-75
2021/05/27 07:39:16;;;;;;;7.20;3.80;;;;;;;28.84;40.13;101597.04;1752787;80;21237;-73
2021/05/27 07:41:49;;;;;;;7.10;3.50;;;;;;;28.78;40.80;101591.33;1761545;81;21241;-72
2021/05/27 07:44:28;;;;;;;13.43;4.65;;;;;;;28.88;38.78;101597.99;1760611;81;21687;-71
2021/05/27 07:47:03;;;;;;;8.40;4.08;;;;;;;28.98;39.05;101592.39;1761238;80;21238;-78
2021/05/27 07:49:38;;;;;;;15.63;4.03;;;;;;;29.00;39.91;101600.01;1754351;80;21243;-77
2021/05/27 07:52:11;;;;;;;13.40;4.53;;;;;;;29.00;39.91;101590.84;1753296;80;21477;-72
2021/05/27 07:54:44;;;;;;;7.22;4.95;;;;;;;29.06;40.06;101596.55;1753111;81;21386;-70
2021/05/27 07:57:17;;;;;;;5.83;4.20;;;;;;;28.98;40.09;101601.80;1758761;81;21249;-70
2021/05/27 07:59:51;;;;;;;9.35;4.12;;;;;;;28.86;40.55;101595.25;1759824;81;21324;-71
2021/05/27 08:02:23;;;;;;;11.00;4.35;;;;;;;28.82;40.61;101596.58;1759766;81;21704;-70
2021/05/27 08:05:01;;;;;;;7.83;4.00;;;;;;;28.89;40.47;101591.66;1758712;81;21174;-72
2021/05/27 08:07:35;;;;;;;9.75;4.50;;;;;;;28.89;40.90;101588.80;1753645;81;21327;-70
2021/05/27 08:10:12;;;;;;;6.78;4.25;;;;;;;28.73;40.89;101593.00;1752511;81;21170;-74
2021/05/27 08:12:44;;;;;;;5.62;4.45;;;;;;;28.56;41.02;101600.41;1750991;81;21829;-70
2021/05/27 08:15:17;;;;;;;11.20;4.00;;;;;;;28.35;41.08;101597.42;1749303;81;21720;-70
2021/05/27 08:17:50;;;;;;;13.75;4.90;;;;;;;28.24;41.31;101597.69;1751035;81;21291;-68
2021/05/27 08:20:23;;;;;;;11.73;4.67;;;;;;;28.05;41.11;101598.25;1753574;81;21177;-71
2021/05/27 08:22:55;;;;;;;11.07;4.53;;;;;;;27.82;41.25;101599.87;1752324;81;21213;-71
2021/05/27 08:25:30;;;;;;;9.78;4.22;;;;;;;27.63;41.86;101595.90;1750586;81;21423;-68
2021/05/27 08:28:02;;;;;;;7.58;4.58;;;;;;;27.63;41.97;101601.00;1752386;81;21177;-69
2021/05/27 08:30:35;;;;;;;7.85;4.00;;;;;;;27.72;42.20;101594.61;1752356;81;21738;-71
2021/05/27 08:33:08;;;;;;;11.40;4.70;;;;;;;27.78;41.23;101601.80;1755447;81;21357;-73
2021/05/27 08:35:42;;;;;;;6.53;3.65;;;;;;;27.82;40.42;101597.02;1755581;81;21405;-81
2021/05/27 08:38:18;;;;;;;5.75;3.87;;;;;;;27.86;39.70;101600.85;1754110;81;21247;-79
2021/05/27 08:40:52;;;;;;;5.80;3.47;;;;;;;27.90;40.05;101599.55;1739522;82;22499;-72
2021/05/27 08:43:26;;;;;;;4.95;4.17;;;;;;;27.91;39.19;101598.35;1679361;85;21258;-70
2021/05/27 08:46:04;;;;;;;13.28;3.87;;;;;;;27.90;40.43;101594.68;1705294;83;21186;-75
2021/05/27 08:48:37;;;;;;;3.27;2.98;;;;;;;27.94;40.02;101594.80;1701441;83;21451;-72
2021/05/27 08:51:12;;;;;;;12.88;4.05;;;;;;;27.98;39.08;101598.59;1702604;83;21371;-77
2021/05/27 08:53:46;;;;;;;11.30;4.08;;;;;;;27.91;39.60;101599.20;1701625;83;21747;-72
2021/05/27 08:56:19;;;;;;;4.05;2.92;;;;;;;27.91;40.07;101592.06;1704341;83;21325;-69
2021/05/27 08:58:53;;;;;;;5.13;3.10;;;;;;;27.86;39.41;101596.56;1737363;82;21180;-69
2021/05/27 09:01:29;;;;;;;4.80;3.30;;;;;;;27.86;38.32;101599.42;1716721;82;21216;-73
2021/05/27 09:04:02;;;;;;;5.45;3.02;;;;;;;27.83;37.24;101597.26;1736890;82;21893;-70
2021/05/27 09:06:40;;;;;;;7.50;3.27;;;;;;;27.74;35.90;101598.52;1737542;82;21232;-70
2021/05/27 09:09:13;;;;;;;10.05;3.15;;;;;;;27.69;36.77;101595.91;1727215;82;21311;-72
2021/05/27 09:11:48;;;;;;;7.20;3.65;;;;;;;27.64;37.75;101604.70;1736785;82;21231;-77
2021/05/27 09:14:22;;;;;;;6.37;3.30;;;;;;;27.56;38.80;101605.61;1742844;82;21275;-72
2021/05/27 09:17:02;;;;;;;7.55;5.37;;;;;;;27.47;40.97;101596.31;1747356;82;21244;-75
2021/05/27 09:19:38;;;;;;;6.80;3.45;;;;;;;27.37;40.61;101598.17;1744123;82;21388;-71
2021/05/27 09:22:23;;;;;;;4.30;3.37;;;;;;;27.34;40.49;101598.89;1748071;82;21336;-82
2021/05/27 09:24:57;;;;;;;9.40;3.55;;;;;;;27.31;40.39;101595.91;1740617;82;21386;-72
2021/05/27 09:27:47;;;;;;;5.17;3.55;;;;;;;27.22;40.70;101597.41;1741862;82;21391;-74
2021/05/27 09:30:20;;;;;;;10.18;4.25;;;;;;;27.13;40.49;101595.79;1732145;82;21174;-76
2021/05/27 09:32:55;;;;;;;6.08;3.30;;;;;;;27.00;40.53;101596.92;1728580;82;21315;-70
2021/05/27 09:35:27;;;;;;;7.95;3.30;;;;;;;26.93;40.72;101596.03;1740341;82;21351;-71
2021/05/27 09:38:00;;;;;;;10.33;3.80;;;;;;;26.85;40.48;101583.27;1743220;82;21336;-73
2021/05/27 09:40:43;;;;;;;6.80;3.25;;;;;;;26.80;39.53;101582.05;1747459;80;22604;-76
2021/05/27 09:43:25;;;;;;;6.35;3.05;;;;;;;26.72;40.05;101584.38;1777316;80;21388;-71
2021/05/27 09:46:03;;;;;;;;;;;;;;;26.64;39.95;101575.31;1766393;80;21320;-77
2021/05/27 09:48:35;;;;;;;;;;;;;;;26.56;40.14;101577.03;1765759;80;20337;-72
2021/05/27 09:51:10;;;;;;;5.37;3.25;;;;;;;26.50;39.81;101566.13;1764064;80;20255;-75
2021/05/27 09:53:49;;;;;;;10.00;3.55;;;;;;;26.50;40.62;101568.98;1759017;80;21380;-72
2021/05/27 09:56:41;;;;;;;3.83;2.70;;;;;;;26.54;41.01;101562.87;1755930;80;21469;-73
2021/05/27 10:02:16;;;;;;;6.30;3.50;;;;;;;26.59;40.99;101556.98;1702441;83;21252;-70
2021/05/27 10:05:02;;;;;;;6.33;2.87;;;;;;;26.62;41.61;101549.14;1706718;83;21206;-73
2021/05/27 10:07:45;;;;;;;6.22;3.15;;;;;;;26.65;41.33;101551.31;1770530;80;21391;-74
2021/05/27 10:10:22;;;;;;;9.20;3.55;;;;;;;26.63;40.84;101547.99;1763914;80;21147;-73
2021/05/27 10:12:55;;;;;;;4.35;3.20;;;;;;;26.63;41.40;101547.99;1703654;83;21290;-74
2021/05/27 10:15:28;;;;;;;11.12;3.67;;;;;;;26.63;41.92;101542.29;1757661;80;21372;-77
2021/05/27 10:18:05;;;;;;;4.40;3.40;;;;;;;26.65;41.61;101544.19;1703721;83;21351;-73
2021/05/27 10:20:39;;;;;;;8.13;3.40;;;;;;;26.64;40.61;101540.49;1703371;83;21569;-73
2021/05/27 10:23:15;;;;;;;9.58;3.42;;;;;;;26.59;40.08;101535.00;1769317;80;21700;-77
2021/05/27 10:25:52;;;;;;;9.65;3.85;;;;;;;26.56;40.92;101532.01;1764984;80;21230;-74
2021/05/27 10:28:27;;;;;;;7.97;4.45;;;;;;;26.53;40.82;101531.26;1766264;80;21311;-76
2021/05/27 10:31:00;;;;;;;6.08;3.22;;;;;;;26.52;41.98;101528.98;1769973;80;21305;-73
2021/05/27 10:33:40;;;;;;;14.23;3.70;;;;;;;26.54;41.96;101530.11;1768590;80;21387;-74
2021/05/27 10:36:13;;;;;;;10.78;3.27;;;;;;;26.57;42.09;101530.24;1764941;80;21368;-68
2021/05/27 10:38:51;;;;;;;8.38;4.67;;;;;;;26.59;41.25;101531.33;1763356;81;21204;-70
2021/05/27 10:41:35;;;;;;;7.60;3.72;;;;;;;26.59;42.34;101527.87;1685101;84;21324;-68
2021/05/27 10:44:12;;;;;;;8.00;4.25;;;;;;;26.57;42.25;101525.15;1716380;82;21353;-69
2021/05/27 10:46:52;;;;;;;13.48;3.62;;;;;;;26.56;42.26;101523.45;1741798;82;21178;-67
2021/05/27 10:49:45;;;;;;;12.50;3.77;;;;;;;26.49;41.68;101521.14;1738916;82;21826;-68
2021/05/27 10:52:38;;;;;;;8.20;5.08;;;;;;;26.45;41.54;101517.92;1744562;82;21719;-68
2021/05/27 10:55:10;;;;;;;6.05;5.00;;;;;;;26.42;42.80;101518.59;1736340;82;21195;-68
2021/05/27 10:57:48;;;;;;;9.28;4.83;;;;;;;26.34;42.46;101514.62;1731349;82;21217;-67
2021/05/27 11:00:37;;;;;;;7.47;3.60;;;;;;;26.30;42.15;101508.54;1741769;82;21217;-67
2021/05/27 11:03:49;;;;;;;11.43;8.13;;;;;;;26.25;41.28;101509.59;1737828;82;21825;-68
2021/05/27 11:06:30;;;;;;;63.65;37.38;;;;;;;26.20;40.76;101508.36;1713773;83;21332;-69
2021/05/27 11:09:23;;;;;;;51.42;29.10;;;;;;;26.10;42.14;101510.17;1679242;85;21197;-68
2021/05/27 11:12:12;;;;;;;27.48;14.68;;;;;;;26.03;42.35;101514.16;1690690;84;21243;-70
2021/05/27 11:14:55;;;;;;;43.83;21.05;;;;;;;25.98;40.90;101506.41;1742901;82;21177;-67
2021/05/27 11:17:29;;;;;;;22.75;15.53;;;;;;;25.94;42.39;101506.84;1743415;82;21196;-67
2021/05/27 11:20:27;;;;;;;28.42;16.85;;;;;;;25.84;42.84;101498.67;1734616;82;21236;-68
2021/05/27 11:22:54;;;;;;;15.85;8.93;;;;;;;25.72;43.08;101498.56;1738960;82;21218;-66
2021/05/27 11:25:29;;;;;;;19.92;14.03;;;;;;;25.67;42.34;101496.72;1736443;82;21237;-67
2021/05/27 11:28:16;;;;;;;13.40;9.13;;;;;;;25.70;42.94;101496.62;1739087;82;21198;-69
2021/05/27 11:30:54;;;;;;;9.55;6.60;;;;;;;25.67;42.98;101487.37;1703931;83;21711;-69
2021/05/27 11:33:32;;;;;;;11.25;6.67;;;;;;;25.65;42.52;101486.85;1746023;82;21844;-70
2021/05/27 11:36:09;;;;;;;10.15;6.78;;;;;;;25.66;42.48;101475.14;1745179;82;21329;-67
2021/05/27 11:38:42;;;;;;;13.22;4.45;;;;;;;25.66;42.93;101475.14;1744491;82;21219;-69
2021/05/27 11:41:18;;;;;;;6.87;5.25;;;;;;;25.65;43.15;101473.47;1743021;82;21892;-69
2021/05/27 11:43:54;;;;;;;11.35;5.40;;;;;;;25.65;42.51;101470.63;1758328;80;21411;-68
2021/05/27 11:46:30;;;;;;;5.45;4.30;;;;;;;25.64;42.35;101463.84;1767988;80;21242;-70
2021/05/27 11:49:02;;;;;;;11.03;4.28;;;;;;;25.64;40.79;101459.58;1770893;80;21318;-68
2021/05/27 11:51:38;;;;;;;;;;;;;;;25.64;41.71;101459.58;1768193;80;21159;-70
2021/05/27 11:54:11;;;;;;;8.55;5.10;;;;;;;25.62;42.49;101460.52;1763752;80;20245;-68
2021/05/27 11:56:52;;;;;;;7.50;4.78;;;;;;;25.56;43.01;101463.31;1764791;79;21163;-68
2021/05/27 11:59:26;;;;;;;8.55;5.28;;;;;;;25.52;43.09;101463.73;1698533;84;21356;-67
2021/05/27 12:02:01;;;;;;;7.47;4.30;;;;;;;25.48;43.32;101463.58;1698397;84;21249;-69
2021/05/27 12:04:36;;;;;;;11.60;4.22;;;;;;;25.45;42.67;101454.90;1764609;80;21337;-68
2021/05/27 12:07:13;;;;;;;9.33;4.08;;;;;;;25.46;42.15;101450.87;1764477;80;21321;-69
2021/05/27 12:09:49;;;;;;;9.73;4.60;;;;;;;25.48;41.90;101455.66;1760663;80;21337;-72
2021/05/27 12:12:27;;;;;;;6.00;3.20;;;;;;;25.52;41.65;101448.08;1764952;80;21167;-70
2021/05/27 12:15:08;;;;;;;5.58;3.40;;;;;;;25.54;40.64;101445.75;1763255;80;21166;-72
2021/05/27 12:17:44;;;;;;;6.85;3.75;;;;;;;25.53;39.32;101453.44;1762748;80;21549;-70
2021/05/27 12:20:32;;;;;;;6.70;3.27;;;;;;;25.51;39.14;101444.42;1766364;80;21388;-73
2021/05/27 12:23:11;;;;;;;8.90;3.27;;;;;;;25.51;39.30;101440.73;1742731;81;21371;-70